»·PEaware :: QXE2199 KPDX-KMFR

QXE2199 :: KPDX-KMFR

FLIGHT INFORMATION

Flight Status: Arrived
Operator:
Horizon Air
More flights by this operator :: More flights under this callsign
Pilot: Trevor S. (2559)
Aircraft: DEHAVILLAND DASH 8 400
(DH8D)
More flights by this aircraft type
Origin: KPDX Portland Intl
United States
Destination: KMFR Rogue Valley Intl-Medford
United States
More flights between these airports :: More routes between these airports
Route: EUG OED
File this flight plan on PilotEdge
Remarks: Horizon Air; may experience a problem during flight (training)
Altitude:
(Current/Filed)
210ft
Speed:
(Current/Filed)
348kts
Departed: 18-Dec-17 08:51 PM
Arrived: 18-Dec-17 10:42 PM
Distance/Time
Traveled:
194nm/1:51
Distance/Time
To Go:
Arrived

Flight Plot

Page will automatically refresh every two minutes.

Flight plan parsing failed; only flown route is shown


Map Options




Map Legend


Flown Route
Filed Route
Departure Airport
Arrival Airport
Navaid (VOR, NDB)
Fix

Horizontal Profiles

Position Reports

Time Latitude Longitude Heading Altitude Ground
Speed
18-Dec-17 20:35 45.585965 -122.591616 47 37ft 0kts
18-Dec-17 20:36 45.585965 -122.591616 47 37ft 0kts
18-Dec-17 20:37 45.585965 -122.591616 47 37ft 0kts
18-Dec-17 20:38 45.585965 -122.591616 47 37ft 0kts
18-Dec-17 20:39 45.585965 -122.591616 47 37ft 0kts
18-Dec-17 20:40 45.585965 -122.591616 47 37ft 0kts
18-Dec-17 20:41 45.585965 -122.591616 47 37ft 0kts
18-Dec-17 20:42 45.585965 -122.591616 47 37ft 0kts
18-Dec-17 20:43 45.585965 -122.591616 47 37ft 0kts
18-Dec-17 20:44 45.585965 -122.591616 47 37ft 0kts
18-Dec-17 20:45 45.585965 -122.591616 47 37ft 0kts
18-Dec-17 20:46 45.585503 -122.592314 10 37ft 2kts
18-Dec-17 20:47 45.585323 -122.592229 315 37ft 0kts
18-Dec-17 20:48 45.585323 -122.592229 315 37ft 0kts
18-Dec-17 20:49 45.585323 -122.592229 315 37ft 0kts
18-Dec-17 20:50 45.586640 -122.596306 298 37ft 13kts
18-Dec-17 20:51 45.588529 -122.601056 299 37ft 13kts
18-Dec-17 20:52 45.590579 -122.605428 304 37ft 13kts
18-Dec-17 20:53 45.593300 -122.612482 298 37ft 23kts
18-Dec-17 20:54 45.595715 -122.618850 298 37ft 13kts
18-Dec-17 20:55 45.595704 -122.620670 206 37ft 0kts
18-Dec-17 20:56 45.594738 -122.620420 119 37ft 11kts
18-Dec-17 20:57 45.580554 -122.582670 116 930ft 160kts
18-Dec-17 20:58 45.559325 -122.517999 117 3478ft 182kts
18-Dec-17 20:59 45.552255 -122.500154 119 4308ft 182kts
18-Dec-17 21:09 45.586000 -122.591600 0 37ft 0kts
18-Dec-17 21:10 45.585965 -122.591616 47 37ft 0kts
18-Dec-17 21:11 45.585965 -122.591616 47 37ft 0kts
18-Dec-17 21:12 45.585965 -122.591616 47 37ft 0kts
18-Dec-17 21:13 45.585965 -122.591616 47 37ft 0kts
18-Dec-17 21:14 45.585965 -122.591616 47 37ft 0kts
18-Dec-17 21:15 45.585965 -122.591616 47 37ft 0kts
18-Dec-17 21:16 45.585965 -122.591616 47 37ft 0kts
18-Dec-17 21:17 45.585965 -122.591616 47 37ft 0kts
18-Dec-17 21:18 45.585965 -122.591616 47 37ft 0kts
18-Dec-17 21:19 45.585965 -122.591616 47 37ft 0kts
18-Dec-17 21:20 45.585465 -122.592080 19 37ft 3kts
18-Dec-17 21:21 45.584972 -122.591956 290 37ft 0kts
18-Dec-17 21:22 45.584972 -122.591956 290 37ft 0kts
18-Dec-17 21:23 45.585371 -122.593059 299 37ft 9kts
18-Dec-17 21:24 45.588028 -122.599853 299 37ft 22kts
18-Dec-17 21:25 45.590673 -122.605597 301 37ft 15kts
18-Dec-17 21:26 45.592626 -122.610558 297 37ft 13kts
18-Dec-17 21:27 45.594630 -122.615810 297 37ft 21kts
18-Dec-17 21:28 45.595636 -122.620748 202 37ft 7kts
18-Dec-17 21:29 45.589880 -122.607913 114 47ft 133kts
18-Dec-17 21:30 45.568284 -122.551855 118 2186ft 176kts
18-Dec-17 21:31 45.541784 -122.487893 118 4864ft 192kts
18-Dec-17 21:32 45.514173 -122.422117 118 7807ft 191kts
18-Dec-17 21:33 45.464184 -122.416868 196 10615ft 207kts
18-Dec-17 21:34 45.414077 -122.447048 197 13368ft 184kts
18-Dec-17 21:35 45.365763 -122.474286 202 14983ft 208kts
18-Dec-17 21:36 45.304498 -122.509211 207 15190ft 259kts
18-Dec-17 21:37 45.237019 -122.545977 212 16263ft 262kts
18-Dec-17 21:38 45.169924 -122.586113 214 17263ft 263kts
18-Dec-17 21:39 45.104433 -122.626314 215 18656ft 251kts
18-Dec-17 21:40 45.040835 -122.665446 215 19841ft 248kts
18-Dec-17 21:41 44.977874 -122.704144 215 20861ft 246kts
18-Dec-17 21:42 44.912740 -122.744795 214 21121ft 269kts
18-Dec-17 21:43 44.841089 -122.789325 213 21130ft 292kts
18-Dec-17 21:44 44.764645 -122.836216 212 21129ft 306kts
18-Dec-17 21:45 44.685627 -122.884339 212 21128ft 313kts
18-Dec-17 21:46 44.597405 -122.906764 189 21130ft 342kts
18-Dec-17 21:47 44.502147 -122.907667 189 21145ft 345kts
18-Dec-17 21:48 44.405735 -122.908209 188 21146ft 349kts
18-Dec-17 21:49 44.308557 -122.908463 188 21148ft 351kts
18-Dec-17 21:50 44.211020 -122.908725 188 21165ft 352kts
18-Dec-17 21:51 44.113200 -122.909011 188 21164ft 353kts
18-Dec-17 21:52 44.016248 -122.909237 188 21172ft 353kts
18-Dec-17 21:53 43.918115 -122.909459 188 21165ft 353kts
18-Dec-17 21:54 43.820026 -122.909707 188 21171ft 353kts
18-Dec-17 21:55 43.721888 -122.909975 188 21167ft 353kts
18-Dec-17 21:56 43.623502 -122.910188 188 21166ft 353kts
18-Dec-17 21:57 43.525831 -122.910924 187 21191ft 353kts
18-Dec-17 21:58 43.428406 -122.911148 188 20524ft 345kts
18-Dec-17 21:59 43.334216 -122.911272 187 19523ft 334kts
18-Dec-17 22:00 43.242212 -122.911372 187 18325ft 333kts
18-Dec-17 22:01 43.149134 -122.911638 187 16825ft 337kts
18-Dec-17 22:02 43.055567 -122.911846 187 15328ft 337kts
18-Dec-17 22:03 42.963998 -122.917989 198 13827ft 318kts
18-Dec-17 22:04 42.879598 -122.944606 199 12236ft 306kts
18-Dec-17 22:05 42.799942 -122.968761 199 10399ft 280kts
18-Dec-17 22:06 42.728208 -122.992269 197 8776ft 255kts
18-Dec-17 22:07 42.659077 -123.012312 188 7250ft 256kts
18-Dec-17 22:08 42.591530 -122.987225 161 5662ft 243kts
18-Dec-17 22:09 42.534910 -122.957634 161 4514ft 194kts
18-Dec-17 22:10 42.489642 -122.934280 157 3540ft 154kts
18-Dec-17 22:11 42.456166 -122.915911 156 2788ft 125kts
18-Dec-17 22:12 42.424089 -122.898791 158 2147ft 122kts
18-Dec-17 22:13 42.392273 -122.882149 154 1738ft 141kts
18-Dec-17 22:14 42.349353 -122.859877 158 3937ft 189kts
18-Dec-17 22:15 42.297426 -122.832167 152 6718ft 205kts
18-Dec-17 22:16 42.253021 -122.777808 119 9135ft 227kts
18-Dec-17 22:17 42.217837 -122.691812 126 9061ft 282kts
18-Dec-17 22:18 42.165417 -122.617705 144 9000ft 267kts
18-Dec-17 22:19 42.123723 -122.535840 107 8999ft 272kts
18-Dec-17 22:20 42.129205 -122.434745 66 9024ft 280kts
18-Dec-17 22:21 42.182064 -122.359227 24 9027ft 284kts
18-Dec-17 22:22 42.256073 -122.346775 341 9789ft 253kts
18-Dec-17 22:23 42.316238 -122.396772 315 9997ft 266kts
18-Dec-17 22:24 42.374117 -122.464391 315 10000ft 281kts
18-Dec-17 22:25 42.433764 -122.534298 315 9715ft 282kts
18-Dec-17 22:26 42.491537 -122.602760 315 8230ft 270kts
18-Dec-17 22:27 42.546368 -122.667075 315 8002ft 251kts
18-Dec-17 22:28 42.597895 -122.726529 315 7996ft 235kts
18-Dec-17 22:29 42.647924 -122.783906 314 7556ft 245kts
18-Dec-17 22:30 42.648271 -122.861731 244 7014ft 207kts
18-Dec-17 22:31 42.624560 -122.927570 219 6517ft 179kts
18-Dec-17 22:32 42.581231 -122.940856 200 6517ft 160kts
18-Dec-17 22:33 42.536743 -122.954673 175 5757ft 177kts
18-Dec-17 22:34 42.487380 -122.933604 159 5563ft 194kts
18-Dec-17 22:35 42.435823 -122.918001 214 6949ft 186kts
18-Dec-17 22:36 42.445458 -122.977671 316 7005ft 206kts
18-Dec-17 22:37 42.489981 -123.028601 315 6999ft 209kts
18-Dec-17 22:38 42.534219 -123.079828 315 6999ft 209kts
18-Dec-17 22:39 42.581653 -123.124915 357 6942ft 215kts
18-Dec-17 22:40 42.614705 -123.069433 100 6774ft 207kts
18-Dec-17 22:41 42.597308 -122.998503 135 6457ft 178kts
18-Dec-17 22:42 42.555571 -122.967783 162 5215ft 160kts
18-Dec-17 22:43 42.514263 -122.947350 160 4136ft 142kts
18-Dec-17 22:44 42.481858 -122.929894 157 3303ft 119kts
18-Dec-17 22:45 42.449539 -122.912805 158 2509ft 124kts
18-Dec-17 22:46 42.417362 -122.896970 154 1888ft 117kts
18-Dec-17 22:47 42.386632 -122.879485 157 1396ft 114kts
18-Dec-17 22:48 42.369950 -122.870773 184 1343ft 10kts
18-Dec-17 22:49 42.368781 -122.872455 251 1343ft 2kts
18-Dec-17 22:50 42.368775 -122.872481 251 1342ft 0kts
18-Dec-17 22:51 42.368775 -122.872481 251 1342ft 0kts
18-Dec-17 22:52 42.368775 -122.872481 251 1342ft 0kts

Navigation Log

Ident Type
Flight plan parsing failed, navigation log unavailable